Latest Weather Observations for Batchelor

IDD60801

Issued at 8:31 am CST Thursday 28 July 2016 (issued every 30 minutes, with the page automatically refreshed every 10 minutes)

About weather observations | Map of weather stations | Latest weather observations for NT | Other Formats
Station Details ID: 014272 Name: BATCHELOR AIRPORT Lat: -13.05 Lon: 131.03 Height: 104.0 m
Data from the previous 72 hours. | See also: Recent months at Batchelor
Date/Time
CST
Temp
°C
App
Temp
°C
Dew
Point
°C
Rel
Hum
%
Delta-T
°C
Wind Press
QNH
hPa
Press
MSL
hPa
Rain since
9am
mm
Dir  Spd
km/h
Gust
km/h
Spd
kts
Gust
kts
28/08:30am 21.8 16.5 2.0 27 9.3 SE 19 28 10 15 1017.1 1016.6 0.0
28/08:00am 20.9 16.6 3.2 31 8.4 SE 15 22 8 12 1016.9 1016.4 0.0
28/07:30am 20.0 16.2 3.7 34 7.8 SE 13 19 7 10 1016.4 1015.9 0.0
28/07:00am 19.6 16.3 4.5 37 7.3 SE 11 20 6 11 1016.3 1015.8 0.0
28/06:30am 19.9 16.6 4.8 37 7.4 SE 11 15 6 8 1015.9 1015.4 0.0
28/06:00am 20.0 16.8 4.9 37 7.4 SE 11 19 6 10 1015.6 1015.1 0.0
28/05:30am 20.2 17.1 5.4 38 7.3 SE 11 15 6 8 1015.4 1014.9 0.0
28/05:00am 20.1 17.4 5.4 38 7.3 SE 9 15 5 8 1015.3 1014.8 0.0
28/04:30am 20.7 18.1 5.9 38 7.4 SE 9 15 5 8 1015.2 1014.7 0.0
28/04:00am 21.1 18.8 5.9 37 7.6 SE 7 13 4 7 1015.1 1014.6 0.0
28/03:30am 21.6 18.5 5.5 35 8.0 SE 11 17 6 9 1015.2 1014.7 0.0
28/03:00am 22.3 18.8 5.3 33 8.5 SE 13 19 7 10 1015.1 1014.6 0.0
28/02:30am 22.6 19.5 5.5 33 8.6 SE 11 17 6 9 1015.1 1014.6 0.0
28/02:00am 23.4 20.2 4.9 30 9.3 SE 11 20 6 11 1015.0 1014.5 0.0
28/01:30am 23.9 20.4 5.3 30 9.4 SE 13 22 7 12 1014.9 1014.4 0.0
28/01:00am 23.6 20.6 6.0 32 9.0 SE 11 15 6 8 1014.9 1014.4 0.0
28/12:30am 22.8 20.6 6.1 34 8.5 SE 7 11 4 6 1014.9 1014.4 0.0
28/12:00am 23.3 21.2 6.6 34 8.6 SE 7 11 4 6 1014.9 1014.4 0.0
 
Date/Time
CST
Temp
°C
App
Temp
°C
Dew
Point
°C
Rel
Hum
%
Delta-T
°C
Wind Press
QNH
hPa
Press
MSL
hPa
Rain since
9am
mm
Dir  Spd
km/h
Gust
km/h
Spd
kts
Gust
kts
27/11:30pm 22.5 20.8 7.5 38 7.8 SE 6 9 3 5 1015.0 1014.5 0.0
27/11:00pm 20.1 18.6 8.4 47 6.1 SE 6 7 3 4 1014.9 1014.4 0.0
27/10:30pm 19.9 18.7 7.9 46 6.2 SE 4 6 2 3 1014.9 1014.4 0.0
27/10:00pm 21.3 19.3 6.4 38 7.6 SE 6 6 3 3 1014.7 1014.2 0.0
27/09:30pm 22.8 21.0 7.0 36 8.2 SE 6 7 3 4 1014.7 1014.2 0.0
27/09:00pm 23.9 21.9 6.2 32 9.1 SE 6 6 3 3 1014.5 1014.0 0.0
27/08:30pm 25.7 23.5 6.3 29 10.1 SE 7 9 4 5 1014.1 1013.6 0.0
27/08:00pm 25.9 23.8 6.5 29 10.2 SE 7 9 4 5 1013.6 1013.1 0.0
27/07:30pm 27.0 24.8 6.4 27 10.8 SE 7 11 4 6 1013.4 1012.9 0.0
27/07:00pm 27.5 24.9 6.3 26 11.2 ESE 9 13 5 7 1013.2 1012.7 0.0
27/06:30pm 29.0 26.0 5.8 23 12.2 ESE 11 15 6 8 1012.8 1012.3 0.0
27/06:00pm 30.5 26.5 5.0 20 13.4 ESE 15 24 8 13 1012.3 1011.9 0.0
27/05:30pm 31.5 26.8 5.1 19 13.9 ESE 19 28 10 15 1011.9 1011.5 0.0
27/05:00pm 31.9 26.5 4.6 18 14.3 ESE 22 37 12 20 1011.7 1011.3 0.0
27/04:30pm 32.3 27.5 5.7 19 14.3 ESE 20 33 11 18 1011.4 1010.9 0.0
27/04:00pm 32.6 27.3 5.2 18 14.6 ESE 22 33 12 18 1011.4 1010.9 0.0
27/03:30pm 32.3 27.3 6.5 20 14.0 ESE 22 35 12 19 1011.4 1010.9 0.0
27/03:00pm 32.2 27.2 6.4 20 14.0 ESE 22 35 12 19 1011.6 1011.1 0.0
27/02:30pm 32.1 27.1 6.3 20 13.9 ESE 22 41 12 22 1012.1 1011.7 0.0
27/02:00pm 32.5 28.3 7.4 21 13.8 E 19 32 10 17 1012.5 1012.1 0.0
27/01:30pm 32.5 27.7 8.7 23 13.4 SE 24 39 13 21 1013.0 1012.5 0.0
27/01:00pm 30.8 26.3 8.5 25 12.4 ESE 22 39 12 21 1013.6 1013.1 0.0
27/12:30pm 31.3 25.9 9.5 26 12.3 ESE 28 39 15 21 1014.1 1013.6 0.0
27/12:00pm 30.2 24.7 9.1 27 11.8 ESE 28 39 15 21 1014.8 1014.3 0.0
27/11:30am 29.8 24.0 9.3 28 11.5 ESE 30 41 16 22 1015.2 1014.7 0.0
27/11:00am 29.1 23.9 10.3 31 10.7 ESE 28 43 15 23 1015.6 1015.1 0.0
27/10:30am 28.3 23.2 10.5 33 10.1 ESE 28 37 15 20 1015.8 1015.3 0.0
27/10:00am 27.0 23.2 11.1 37 9.1 ESE 22 33 12 18 1016.0 1015.5 0.0
27/09:30am 25.6 22.3 11.0 40 8.2 ESE 19 28 10 15 1016.2 1015.7 0.0
27/09:00am 24.2 20.3 10.8 43 7.5 ESE 22 30 12 16 1016.2 1015.7 0.0
27/08:30am 22.7 20.3 10.2 45 6.9 ESE 13 22 7 12 1016.1 1015.6 0.0
27/08:00am 21.1 19.3 10.9 52 5.6 SE 11 20 6 11 1015.8 1015.3 0.0
27/07:30am 16.6 16.8 12.0 74 2.5 SSE 2 6 1 3 1015.2 1014.7 0.0
27/07:00am 15.3 15.0 11.3 77 2.2 ENE 4 6 2 3 1014.6 1014.1 0.0
27/06:30am 17.4 17.4 12.3 72 2.8 ENE 4 6 2 3 1014.2 1013.7 0.0
27/06:00am 16.6 16.1 12.0 74 2.5 ENE 6 6 3 3 1014.0 1013.5 0.0
27/05:30am 16.9 17.0 12.8 77 2.3 ENE 4 6 2 3 1013.9 1013.4 0.0
27/05:00am 17.4 17.8 13.7 79 2.1 ENE 4 4 2 2 1013.6 1013.1 0.0
27/04:30am 17.3 17.7 13.6 79 2.1 ENE 4 6 2 3 1013.4 1012.9 0.0
27/04:00am 17.6 18.1 13.9 79 2.1 ENE 4 6 2 3 1013.4 1012.9 0.0
27/03:30am 17.4 17.9 12.9 75 2.5 ENE 2 6 1 3 1013.3 1012.8 0.0
27/03:00am 18.5 18.5 12.5 68 3.4 NNE 4 11 2 6 1013.3 1012.8 0.0
27/02:30am 17.6 19.1 14.7 83 1.7 CALM 0 0 0 0 1013.3 1012.8 0.0
27/02:00am 18.1 19.5 14.4 79 2.1 CALM 0 0 0 0 1013.4 1012.9 0.0
27/01:30am 18.2 19.8 14.9 81 1.9 CALM 0 0 0 0 1013.6 1013.1 0.0
27/01:00am 19.0 21.3 16.8 87 1.3 CALM 0 0 0 0 1013.8 1013.3 0.0
27/12:30am 18.7 20.2 14.6 77 2.4 CALM 0 0 0 0 1013.9 1013.4 0.0
27/12:00am 18.9 20.0 13.5 71 3.1 CALM 0 0 0 0 1014.1 1013.6 0.0
 
Date/Time
CST
Temp
°C
App
Temp
°C
Dew
Point
°C
Rel
Hum
%
Delta-T
°C
Wind Press
QNH
hPa
Press
MSL
hPa
Rain since
9am
mm
Dir  Spd
km/h
Gust
km/h
Spd
kts
Gust
kts
26/11:30pm 19.9 21.0 13.6 67 3.6 CALM 0 0 0 0 1014.1 1013.6 0.0
26/11:00pm 21.0 21.5 12.7 59 4.7 N 2 2 1 1 1014.1 1013.6 0.0
26/10:30pm 22.5 22.4 12.2 52 5.9 N 4 7 2 4 1014.0 1013.5 0.0
26/10:00pm 25.1 24.5 11.6 42 7.7 N 6 11 3 6 1013.9 1013.4 0.0
26/09:49pm 26.7 25.1 11.6 39 8.7 NNW 11 17 6 9 1013.8 1013.3 0.0
26/09:30pm 21.6 21.3 11.6 53 5.6 E 4 9 2 5 1013.6 1013.1 0.0
26/09:00pm 21.8 21.3 10.9 50 6.0 E 4 4 2 2 1013.3 1012.8 0.0
26/08:30pm 21.9 21.5 11.0 50 6.0 E 4 4 2 2 1013.1 1012.6 0.0
26/08:00pm 23.6 23.5 9.6 41 7.6 CALM 0 0 0 0 1012.4 1012.0 0.0
26/07:30pm 24.5 24.4 9.6 39 8.2 CALM 0 0 0 0 1011.9 1011.5 0.0
26/07:00pm 26.1 26.0 9.5 35 9.2 CALM 0 2 0 1 1011.5 1011.0 0.0
26/06:30pm 29.3 27.5 7.8 26 11.7 ESE 7 11 4 6 1011.1 1010.6 0.0
26/06:00pm 31.5 28.9 7.9 23 13.1 ESE 11 17 6 9 1010.8 1010.3 0.0
26/05:30pm 32.3 29.6 7.2 21 13.8 E 11 20 6 11 1010.4 1009.9 0.0
26/05:00pm 32.9 29.1 7.7 21 14.0 ESE 17 24 9 13 1010.2 1009.7 0.0
26/04:30pm 33.0 29.5 7.1 20 14.3 E 15 22 8 12 1010.1 1009.6 0.0
26/04:00pm 33.0 30.0 7.8 21 14.0 SE 13 22 7 12 1010.1 1009.6 0.0
26/03:30pm 32.8 29.0 7.6 21 14.0 ESE 17 26 9 14 1010.2 1009.7 0.0
26/03:00pm 33.0 28.9 7.8 21 14.0 E 19 30 10 16 1010.7 1010.2 0.0
26/02:30pm 32.6 28.8 7.4 21 13.9 E 17 26 9 14 1011.0 1010.5 0.0
26/02:00pm 32.7 29.2 8.9 23 13.4 E 17 28 9 15 1011.6 1011.1 0.0
26/01:30pm 32.0 28.0 8.3 23 13.2 ESE 19 28 10 15 1012.3 1011.9 0.0
26/01:00pm 31.9 27.9 8.2 23 13.2 ESE 19 30 10 16 1012.8 1012.3 0.0
26/12:30pm 31.8 27.9 9.3 25 12.7 ESE 20 30 11 16 1013.2 1012.7 0.0
26/12:00pm 31.1 27.1 10.4 28 11.9 ESE 22 30 12 16 1013.7 1013.2 0.0
26/11:30am 30.7 27.4 11.6 31 11.2 ESE 20 32 11 17 1014.2 1013.7 0.0
26/11:00am 29.2 27.0 13.4 38 9.4 ESE 17 26 9 14 1014.5 1014.0 0.0
26/10:30am 29.1 28.3 16.0 45 8.1 E 15 24 8 13 1014.9 1014.4 0.0
26/10:00am 27.0 26.9 16.9 54 6.3 ESE 13 20 7 11 1015.2 1014.7 0.0
26/09:30am 25.0 27.0 20.7 77 2.8 SE 11 17 6 9 1015.4 1014.9 0.0
26/09:00am 23.3 26.2 21.7 91 1.1 SE 9 15 5 8 1015.3 1014.8 0.0
26/08:30am 23.5 27.8 22.7 95 0.5 SSE 4 13 2 7 1014.8 1014.3 0.0
26/08:00am 20.6 24.5 20.3 98 0.2 CALM 0 0 0 0 1014.2 1013.7 0.0
26/07:30am 18.9 21.8 18.2 96 0.4 CALM 0 0 0 0 1014.1 1013.6 0.0
26/07:00am 19.1 22.1 18.4 96 0.4 CALM 0 0 0 0 1013.8 1013.3 0.0
26/06:30am 18.8 21.5 17.8 94 0.6 CALM 0 0 0 0 1013.5 1013.0 0.0
26/06:00am 19.7 23.0 19.0 96 0.4 CALM 0 0 0 0 1013.5 1013.0 0.0
26/05:30am 19.2 22.1 18.2 94 0.6 CALM 0 0 0 0 1013.4 1012.9 0.0
26/05:00am 20.2 23.7 19.5 96 0.4 CALM 0 0 0 0 1013.2 1012.7 0.0
26/04:30am 19.9 23.1 18.9 94 0.6 CALM 0 0 0 0 1013.1 1012.6 0.0
26/04:00am 20.7 24.4 19.9 95 0.5 CALM 0 0 0 0 1013.0 1012.5 0.0
26/03:30am 20.6 24.0 19.3 92 0.8 CALM 0 0 0 0 1013.1 1012.6 0.0
26/03:00am 21.2 24.3 20.2 94 0.6 WNW 4 6 2 3 1013.1 1012.6 0.0
26/02:30am 21.6 24.8 20.6 94 0.6 WNW 4 7 2 4 1013.1 1012.6 0.0
26/02:00am 21.8 25.7 20.4 92 0.9 CALM 0 0 0 0 1013.2 1012.7 0.0
26/01:30am 22.3 26.0 20.8 91 1.0 WNW 2 2 1 1 1013.4 1012.9 0.0
26/01:00am 22.8 27.0 20.9 89 1.2 CALM 0 0 0 0 1013.4 1012.9 0.0
26/12:30am 22.9 26.9 20.6 87 1.5 CALM 0 0 0 0 1013.5 1013.0 0.0
26/12:00am 24.0 28.6 21.7 87 1.5 CALM 0 0 0 0 1013.4 1012.9 0.0
 
Date/Time
CST
Temp
°C
App
Temp
°C
Dew
Point
°C
Rel
Hum
%
Delta-T
°C
Wind Press
QNH
hPa
Press
MSL
hPa
Rain since
9am
mm
Dir  Spd
km/h
Gust
km/h
Spd
kts
Gust
kts
25/11:30pm 24.0 27.6 21.3 85 1.8 WNW 4 6 2 3 1013.4 1012.9 0.0
25/11:00pm 24.2 27.9 21.5 85 1.8 WNW 4 6 2 3 1013.6 1013.1 0.0
25/10:30pm 24.5 27.8 21.4 83 2.1 W 6 9 3 5 1013.3 1012.8 0.0
25/10:00pm 24.3 28.0 20.8 81 2.3 W 2 4 1 2 1013.3 1012.8 0.0
25/09:30pm 24.5 27.4 20.6 79 2.6 W 6 6 3 3 1013.1 1012.6 0.0
25/09:00pm 24.9 27.2 19.5 72 3.5 WNW 6 9 3 5 1012.8 1012.3 0.0
25/08:30pm 25.1 26.6 18.8 68 4.0 NW 9 15 5 8 1012.3 1011.9 0.0
25/08:00pm 24.3 24.3 11.3 44 7.3 E 2 2 1 1 1011.6 1011.1 0.0
25/07:30pm 25.4 25.4 11.2 41 8.1 E 2 2 1 1 1011.3 1010.8 0.0
25/07:00pm 27.5 26.5 10.2 34 9.7 E 6 7 3 4 1011.1 1010.6 0.0
25/06:30pm 30.6 29.0 8.9 26 12.1 ESE 7 9 4 5 1010.7 1010.2 0.0
25/06:00pm 32.0 30.1 8.9 24 13.0 E 9 13 5 7 1010.4 1009.9 0.0
25/05:30pm 32.9 29.8 9.0 23 13.6 E 15 19 8 10 1010.2 1009.7 0.0
25/05:00pm 33.3 29.4 7.3 20 14.4 ESE 17 28 9 15 1010.1 1009.6 0.0
25/04:30pm 34.1 31.9 8.0 20 14.7 E 9 13 5 7 1009.9 1009.4 0.0
25/04:00pm 33.7 30.7 7.6 20 14.5 E 13 24 7 13 1010.0 1009.5 0.0
25/03:30pm 34.6 31.6 9.1 21 14.6 SE 15 22 8 12 1010.1 1009.6 0.0
25/03:00pm 33.7 30.6 9.0 22 14.1 ESE 15 26 8 14 1010.3 1009.8 0.0
25/02:30pm 33.2 31.1 9.9 24 13.4 E 11 20 6 11 1010.7 1010.2 0.0
25/02:00pm 32.2 29.6 11.9 29 12.0 SE 17 28 9 15 1011.4 1010.9 0.0
25/01:30pm 32.7 29.5 11.8 28 12.4 ESE 20 33 11 18 1011.8 1011.4 0.0
25/01:00pm 32.2 28.9 12.9 31 11.6 ESE 22 33 12 18 1012.3 1011.9 0.0
25/12:30pm 31.9 30.3 15.0 36 10.4 ESE 17 28 9 15 1013.0 1012.5 0.0
25/12:00pm 31.7 29.2 15.2 36 10.2 E 22 33 12 18 1013.2 1012.7 0.0
25/11:30am 30.5 28.7 16.1 41 9.0 ESE 20 32 11 17 1013.7 1013.2 0.0
25/11:00am 29.9 27.7 16.0 43 8.7 ESE 22 33 12 18 1014.2 1013.7 0.0
25/10:50am 29.1 27.5 16.0 45 8.1 ESE 19 37 10 20 1014.3 1013.8 0.0
25/10:30am 29.2 30.8 19.2 54 6.5 SE 9 19 5 10 1014.4 1013.9 0.0
25/10:00am 28.4 30.7 18.5 55 6.4 E 4 7 2 4 1014.3 1013.8 0.0
25/09:30am 27.1 29.8 19.4 62 5.0 ENE 4 6 2 3 1014.5 1014.0 0.0
25/09:00am 25.9 30.0 20.7 73 3.4 CALM 0 0 0 0 1014.3 1013.8 0.0

Other Formats:

Comma delimited format used in spreadsheet applications
http://www.bom.gov.au/fwo/IDD60801/IDD60801.94125.axf

JavaScript Object Notation format (JSON) in row-major order
http://www.bom.gov.au/fwo/IDD60801/IDD60801.94125.json